Time;durP1;ratioP1;P1;durP2;ratioP2;P2;SDS_P1;SDS_P2;PMS_P1;PMS_P2;Temp;Humidity;BMP_temperature;BMP_pressure;BME280_temperature;BME280_humidity;BME280_pressure;Samples;Min_cycle;Max_cycle;Signal;HPM_P1;HPM_P2
2023/08/24 00:03:50;;;;;;;7.10;5.00;;;;;;;19.05;100.00;100462.30;177814;1262;44259;-79
2023/08/24 00:07:54;;;;;;;6.30;5.00;;;;;;;19.06;100.00;100462.52;177430;1262;46032;-79
2023/08/24 00:11:57;;;;;;;8.40;5.20;;;;;;;19.04;100.00;100465.60;177939;1262;46134;-79
2023/08/24 00:16:00;;;;;;;9.50;4.50;;;;;;;18.99;100.00;100470.11;179875;1262;46061;-79
2023/08/24 00:20:10;;;;;;;11.40;5.40;;;;;;;19.00;100.00;100469.30;178418;1262;57954;-79
2023/08/24 00:24:13;;;;;;;8.10;5.40;;;;;;;19.03;100.00;100469.14;178630;1263;44845;-78
2023/08/24 00:28:17;;;;;;;5.10;4.20;;;;;;;18.99;100.00;100468.85;178147;1261;46233;-79
2023/08/24 00:32:20;;;;;;;8.40;4.80;;;;;;;18.94;100.00;100466.50;176920;1262;46063;-79
2023/08/24 00:36:23;;;;;;;4.50;4.10;;;;;;;18.92;100.00;100467.66;177593;1263;46148;-79
2023/08/24 00:40:26;;;;;;;6.00;5.00;;;;;;;18.90;100.00;100469.36;177101;1264;58244;-79
2023/08/24 00:44:29;;;;;;;6.60;5.00;;;;;;;18.90;100.00;100469.33;178082;1264;46131;-79
2023/08/24 00:48:32;;;;;;;9.70;4.90;;;;;;;18.90;100.00;100468.98;178138;1262;46260;-78
2023/08/24 00:52:39;;;;;;;4.60;4.10;;;;;;;18.82;100.00;100466.45;178464;1261;44014;-78
2023/08/24 00:56:42;;;;;;;6.80;4.70;;;;;;;18.79;100.00;100463.63;178680;1262;45455;-79
2023/08/24 01:00:45;;;;;;;5.10;4.10;;;;;;;18.74;100.00;100465.21;177407;1261;57427;-79
2023/08/24 01:04:49;;;;;;;9.30;4.50;;;;;;;18.71;100.00;100464.52;177687;1261;46000;-79
2023/08/24 01:08:54;;;;;;;7.30;5.30;;;;;;;18.67;100.00;100468.35;179362;1261;46028;-79
2023/08/24 01:13:12;;;;;;;4.80;4.30;;;;;;;18.66;100.00;100463.23;178912;1261;46101;-79
2023/08/24 01:17:21;;;;;;;6.50;3.80;;;;;;;18.66;100.00;100464.10;178019;1262;45969;-78
2023/08/24 01:21:25;;;;;;;4.90;4.40;;;;;;;18.65;100.00;100464.08;178064;1261;57896;-79
2023/08/24 01:25:34;;;;;;;10.60;5.60;;;;;;;18.64;100.00;100463.80;178193;1260;45998;-78
2023/08/24 01:29:40;;;;;;;6.40;3.90;;;;;;;18.62;100.00;100463.69;176996;1265;46223;-78
2023/08/24 01:33:45;;;;;;;7.20;4.30;;;;;;;18.60;100.00;100466.02;178014;1261;45993;-79
2023/08/24 01:37:48;;;;;;;9.40;5.00;;;;;;;18.60;100.00;100471.98;178181;1261;46793;-79
2023/08/24 01:41:53;;;;;;;5.90;4.30;;;;;;;18.58;100.00;100471.52;178654;1262;57966;-78
2023/08/24 01:45:58;;;;;;;10.60;5.00;;;;;;;18.56;100.00;100471.01;178490;1264;46146;-79
2023/08/24 01:50:02;;;;;;;5.30;4.70;;;;;;;18.57;100.00;100468.18;177681;1261;47560;-79
2023/08/24 01:54:06;;;;;;;11.10;5.20;;;;;;;18.60;100.00;100463.52;178070;1262;46091;-79
2023/08/24 01:58:09;;;;;;;7.60;4.50;;;;;;;18.59;100.00;100466.73;178771;1261;48566;-79
2023/08/24 02:02:12;;;;;;;5.90;5.00;;;;;;;18.55;100.00;100467.30;177381;1262;59405;-78
2023/08/24 02:06:15;;;;;;;5.00;4.50;;;;;;;18.53;100.00;100466.73;177050;1262;46088;-79
2023/08/24 02:10:18;;;;;;;6.80;5.20;;;;;;;18.50;100.00;100471.38;178591;1260;46098;-79
2023/08/24 02:14:21;;;;;;;5.50;3.60;;;;;;;18.46;100.00;100472.16;176990;1262;44477;-78
2023/08/24 02:18:24;;;;;;;5.50;5.00;;;;;;;18.27;100.00;100474.20;178684;1261;46099;-79
2023/08/24 02:22:29;;;;;;;11.50;5.20;;;;;;;18.02;100.00;100469.60;178054;1262;57993;-79
2023/08/24 02:26:31;;;;;;;5.30;4.60;;;;;;;17.78;100.00;100475.94;177836;1261;46121;-78
2023/08/24 02:30:38;;;;;;;6.80;4.00;;;;;;;17.63;100.00;100475.04;176848;1261;46174;-79
2023/08/24 02:34:41;;;;;;;6.20;5.10;;;;;;;17.59;100.00;100471.81;177014;1260;46170;-78
2023/08/24 02:38:44;;;;;;;6.50;4.70;;;;;;;17.50;100.00;100472.72;176716;1262;45987;-79
2023/08/24 02:42:47;;;;;;;4.90;4.30;;;;;;;17.43;100.00;100470.95;176656;1260;59595;-78
2023/08/24 02:46:50;;;;;;;6.40;5.80;;;;;;;17.42;100.00;100473.45;178833;1262;46051;-79
2023/08/24 02:50:53;;;;;;;6.90;5.20;;;;;;;17.44;100.00;100467.59;178141;1262;46001;-78
2023/08/24 02:54:55;;;;;;;12.20;5.70;;;;;;;17.46;100.00;100460.52;178641;1260;45959;-78
2023/08/24 02:58:58;;;;;;;7.60;5.10;;;;;;;17.42;100.00;100463.69;178742;1261;46118;-78
2023/08/24 03:03:01;;;;;;;6.80;6.00;;;;;;;17.31;100.00;100466.13;178138;1262;59258;-78
2023/08/24 03:07:07;;;;;;;7.20;5.60;;;;;;;17.26;100.00;100467.36;178014;1261;46039;-78
2023/08/24 03:11:10;;;;;;;8.60;6.20;;;;;;;17.22;100.00;100465.48;178018;1261;46121;-78
2023/08/24 03:15:13;;;;;;;11.30;6.70;;;;;;;17.21;100.00;100465.27;177820;1262;46235;-78
2023/08/24 03:19:17;;;;;;;10.20;6.90;;;;;;;17.21;100.00;100465.58;178393;1260;44328;-79
2023/08/24 03:23:21;;;;;;;6.70;4.90;;;;;;;17.23;100.00;100464.45;178559;1261;59559;-79
2023/08/24 03:27:24;;;;;;;7.30;5.20;;;;;;;17.20;100.00;100467.42;179653;1261;45232;-79
2023/08/24 03:31:27;;;;;;;9.10;6.10;;;;;;;17.24;100.00;100460.45;177223;1261;46105;-79
2023/08/24 03:35:31;;;;;;;9.00;6.20;;;;;;;17.35;100.00;100462.88;179728;1261;46035;-79
2023/08/24 03:39:37;;;;;;;7.50;5.10;;;;;;;17.44;100.00;100465.10;179604;1261;46198;-79
2023/08/24 03:43:40;;;;;;;5.90;4.90;;;;;;;17.51;100.00;100460.41;179522;1261;58232;-78
2023/08/24 03:47:43;;;;;;;7.90;5.30;;;;;;;17.57;100.00;100460.70;177013;1262;45715;-79
2023/08/24 03:51:46;;;;;;;7.30;5.20;;;;;;;17.53;100.00;100460.15;176912;1262;46208;-79
2023/08/24 03:55:49;;;;;;;8.60;5.30;;;;;;;17.46;100.00;100461.17;176449;1262;46234;-79
2023/08/24 03:59:53;;;;;;;6.90;6.00;;;;;;;17.36;100.00;100469.20;177080;1261;46005;-79
2023/08/24 04:03:57;;;;;;;9.80;5.00;;;;;;;17.27;100.00;100466.66;178139;1260;58261;-79
2023/08/24 04:08:04;;;;;;;5.80;4.50;;;;;;;17.30;100.00;100470.57;176830;1261;45976;-80
2023/08/24 04:12:07;;;;;;;6.70;4.60;;;;;;;17.39;100.00;100470.48;177326;1261;46085;-79
2023/08/24 04:16:10;;;;;;;5.60;5.00;;;;;;;17.47;100.00;100480.34;178700;1260;52801;-80
2023/08/24 04:20:13;;;;;;;11.20;6.50;;;;;;;17.68;100.00;100486.77;176886;1261;46008;-79
2023/08/24 04:24:16;;;;;;;7.90;4.60;;;;;;;17.86;100.00;100488.94;177096;1262;58297;-80
2023/08/24 04:28:19;;;;;;;7.40;6.00;;;;;;;18.04;100.00;100496.50;177912;1260;46108;-80
2023/08/24 04:32:23;;;;;;;10.60;5.20;;;;;;;18.60;100.00;100503.96;177471;1261;46195;-80
2023/08/24 04:36:26;;;;;;;14.60;7.00;;;;;;;19.29;100.00;100498.52;177130;1262;46113;-80
2023/08/24 04:40:29;;;;;;;6.70;4.70;;;;;;;19.93;100.00;100484.80;176268;1265;46127;-80
2023/08/24 04:44:33;;;;;;;8.60;5.00;;;;;;;20.48;100.00;100485.66;177272;1262;57901;-81
2023/08/24 04:48:36;;;;;;;5.10;4.10;;;;;;;21.00;100.00;100482.70;177592;1262;46138;-80
2023/08/24 04:52:42;;;;;;;4.60;3.90;;;;;;;21.47;99.08;100474.75;177436;1262;46115;-80
2023/08/24 04:56:45;;;;;;;6.70;4.50;;;;;;;21.89;96.80;100475.20;178071;1262;46464;-80
2023/08/24 05:00:49;;;;;;;6.10;4.30;;;;;;;22.44;94.57;100479.44;176715;1261;46062;-80
2023/08/24 05:04:52;;;;;;;4.90;3.70;;;;;;;22.85;90.25;100479.55;177055;1262;59325;-80
2023/08/24 05:08:55;;;;;;;4.70;4.30;;;;;;;22.76;86.23;100485.08;177332;1262;46217;-80
2023/08/24 05:12:58;;;;;;;4.80;4.30;;;;;;;22.58;88.23;100488.72;177368;1260;44400;-80
2023/08/24 05:17:01;;;;;;;9.20;5.00;;;;;;;22.95;90.71;100488.91;177581;1261;45975;-80
2023/08/24 05:21:05;;;;;;;7.90;4.20;;;;;;;23.34;87.38;100490.68;177336;1262;46043;-81
2023/08/24 05:25:09;;;;;;;6.00;4.40;;;;;;;23.73;85.90;100493.30;177375;1260;59123;-80
2023/08/24 05:29:12;;;;;;;7.60;5.50;;;;;;;24.05;83.60;100488.46;177497;1262;46034;-81
2023/08/24 05:33:15;;;;;;;8.30;4.50;;;;;;;24.36;85.05;100483.15;177671;1262;46108;-80
2023/08/24 05:37:18;;;;;;;8.60;5.00;;;;;;;24.77;81.87;100481.15;177978;1261;46126;-81
2023/08/24 05:41:21;;;;;;;6.50;5.00;;;;;;;25.01;80.73;100483.48;177473;1262;46012;-80
2023/08/24 05:45:24;;;;;;;7.40;5.90;;;;;;;25.10;80.94;100490.36;177553;1262;59719;-80
2023/08/24 05:49:28;;;;;;;8.20;5.00;;;;;;;24.99;78.77;100489.87;177811;1261;46374;-81
2023/08/24 05:53:31;;;;;;;4.70;4.20;;;;;;;24.57;80.01;100491.50;177555;1262;46127;-81
2023/08/24 05:57:34;;;;;;;4.10;3.70;;;;;;;24.06;80.76;100491.42;177452;1262;44735;-80
2023/08/24 06:01:38;;;;;;;4.30;3.50;;;;;;;23.64;83.60;100495.20;177698;1262;45275;-80
2023/08/24 06:05:41;;;;;;;5.10;4.60;;;;;;;23.75;85.60;100492.54;177486;1262;195602;-81
2023/08/24 06:09:44;;;;;;;5.50;3.70;;;;;;;23.80;84.82;100491.51;177686;1262;46033;-81
2023/08/24 06:13:48;;;;;;;8.70;4.90;;;;;;;23.60;84.46;100494.13;177812;1265;46133;-81
2023/08/24 06:17:51;;;;;;;6.00;4.70;;;;;;;23.54;85.91;100493.83;177673;1262;46052;-80
2023/08/24 06:21:55;;;;;;;3.40;3.10;;;;;;;23.42;83.93;100498.05;177840;1264;44733;-80
2023/08/24 06:25:58;;;;;;;5.80;3.20;;;;;;;23.39;83.21;100496.98;177893;1263;58611;-80
2023/08/24 06:30:03;;;;;;;6.00;3.50;;;;;;;23.41;83.08;100497.56;177662;1262;46031;-80
2023/08/24 06:34:06;;;;;;;5.30;4.80;;;;;;;23.27;85.77;100494.77;177611;1262;46091;-80
2023/08/24 06:38:09;;;;;;;4.10;3.40;;;;;;;23.38;86.55;100484.93;179078;1264;45949;-81
2023/08/24 06:42:13;;;;;;;5.00;3.70;;;;;;;23.44;82.35;100483.56;178325;1262;46033;-80
2023/08/24 06:46:16;;;;;;;5.30;3.50;;;;;;;23.37;84.05;100485.77;177720;1262;59552;-80
2023/08/24 06:50:19;;;;;;;5.80;4.20;;;;;;;23.49;84.23;100482.98;177064;1263;46093;-80
2023/08/24 06:54:22;;;;;;;6.20;3.00;;;;;;;23.63;84.27;100479.80;177351;1262;46110;-80
2023/08/24 06:58:27;;;;;;;5.70;4.40;;;;;;;23.71;81.93;100476.54;177648;1262;46123;-80
2023/08/24 07:02:30;;;;;;;4.90;3.80;;;;;;;23.94;84.43;100471.83;177651;1262;44087;-79
2023/08/24 07:06:34;;;;;;;6.40;4.60;;;;;;;24.19;82.54;100464.20;177886;1262;58218;-79
2023/08/24 07:10:37;;;;;;;4.20;2.60;;;;;;;24.57;81.21;100469.63;178566;1262;43819;-80
2023/08/24 07:14:40;;;;;;;5.80;4.00;;;;;;;24.84;78.87;100469.16;178469;1262;46014;-80
2023/08/24 07:18:43;;;;;;;5.60;3.10;;;;;;;24.90;78.10;100478.19;178753;1262;44716;-80
2023/08/24 07:22:46;;;;;;;3.00;2.80;;;;;;;24.68;78.57;100476.82;177683;1262;45963;-80
2023/08/24 07:26:49;;;;;;;13.60;4.50;;;;;;;24.55;78.46;100473.52;177163;1262;58036;-80
2023/08/24 07:30:55;;;;;;;3.80;2.40;;;;;;;24.68;78.00;100471.73;177847;1262;44801;-80
2023/08/24 07:34:59;;;;;;;4.80;3.10;;;;;;;24.93;77.64;100474.83;177766;1262;45185;-80
2023/08/24 07:39:03;;;;;;;6.70;3.70;;;;;;;24.97;76.00;100475.89;178306;1262;43928;-81
2023/08/24 07:43:07;;;;;;;4.90;3.40;;;;;;;25.00;75.68;100479.31;178537;1261;44655;-80
2023/08/24 07:47:10;;;;;;;3.90;2.20;;;;;;;25.31;76.28;100483.27;178110;1262;58265;-80
2023/08/24 07:51:13;;;;;;;4.50;2.50;;;;;;;25.51;75.46;100478.90;179046;1262;44526;-80
2023/08/24 07:55:16;;;;;;;4.10;2.80;;;;;;;25.61;74.21;100479.75;178954;1262;44861;-80
2023/08/24 07:59:20;;;;;;;3.80;2.50;;;;;;;25.80;73.54;100484.67;178763;1262;45906;-80
2023/08/24 08:03:23;;;;;;;2.30;2.10;;;;;;;25.94;72.37;100484.05;178391;1262;45952;-80
2023/08/24 08:07:28;;;;;;;6.30;3.20;;;;;;;26.02;73.61;100485.36;179104;1262;58237;-80
2023/08/24 08:11:31;;;;;;;2.60;2.20;;;;;;;26.14;73.44;100485.65;178475;1262;44226;-80
2023/08/24 08:15:38;;;;;;;4.90;2.70;;;;;;;26.36;70.42;100487.84;177885;1262;46004;-80
2023/08/24 08:19:41;;;;;;;2.90;1.60;;;;;;;26.53;68.58;100487.15;178492;1262;46112;-80
2023/08/24 08:23:45;;;;;;;3.20;2.90;;;;;;;26.74;67.86;100484.88;178752;1262;45966;-80
2023/08/24 08:27:49;;;;;;;6.60;1.50;;;;;;;27.02;68.80;100484.05;178694;1262;58563;-80
2023/08/24 08:31:53;;;;;;;1.70;1.20;;;;;;;27.18;63.39;100482.36;178549;1262;46051;-80
2023/08/24 08:35:56;;;;;;;2.80;1.70;;;;;;;27.23;62.63;100479.57;178209;1262;46017;-79
2023/08/24 08:39:59;;;;;;;3.40;2.50;;;;;;;27.11;62.58;100477.07;177849;1262;46013;-80
2023/08/24 08:44:05;;;;;;;5.20;2.80;;;;;;;27.15;63.70;100482.04;177852;1263;46123;-80
2023/08/24 08:48:09;;;;;;;1.90;1.60;;;;;;;27.23;62.16;100480.23;178181;1262;59553;-80
2023/08/24 08:52:13;;;;;;;3.40;2.10;;;;;;;27.29;61.66;100478.77;178003;1262;45930;-80
2023/08/24 08:56:16;;;;;;;2.10;1.20;;;;;;;27.35;62.41;100476.57;177939;1262;46079;-80
2023/08/24 09:00:20;;;;;;;2.00;1.80;;;;;;;27.36;62.09;100475.00;177734;1262;46108;-80
2023/08/24 09:04:24;;;;;;;1.70;1.60;;;;;;;27.42;62.86;100476.85;178780;1262;45199;-80
2023/08/24 09:08:29;;;;;;;2.60;2.20;;;;;;;27.42;63.09;100474.06;178340;1262;57623;-80
2023/08/24 09:12:33;;;;;;;2.20;1.40;;;;;;;27.42;61.52;100467.51;178032;1263;45955;-80
2023/08/24 09:16:36;;;;;;;7.60;2.40;;;;;;;27.29;63.29;100467.45;178108;1262;47092;-80
2023/08/24 09:20:39;;;;;;;1.70;1.30;;;;;;;27.45;63.49;100467.81;178035;1262;45962;-80
2023/08/24 09:24:42;;;;;;;2.40;1.80;;;;;;;27.75;63.94;100459.81;178246;1262;46023;-80
2023/08/24 09:28:46;;;;;;;2.00;1.90;;;;;;;27.96;62.51;100456.99;178488;1262;59607;-79
2023/08/24 09:32:49;;;;;;;3.50;1.70;;;;;;;27.87;61.72;100454.36;178585;1262;46105;-80
2023/08/24 09:36:52;;;;;;;3.60;2.00;;;;;;;27.91;60.63;100448.50;178666;1262;45169;-79
2023/08/24 09:40:56;;;;;;;2.70;2.00;;;;;;;28.08;60.55;100441.00;178367;1265;46078;-80
2023/08/24 09:45:04;;;;;;;3.00;2.00;;;;;;;28.27;60.98;100429.14;178490;1262;46086;-80
2023/08/24 09:49:11;;;;;;;4.10;1.70;;;;;;;28.39;60.53;100430.43;178458;1262;59503;-80
2023/08/24 09:53:23;;;;;;;2.10;1.60;;;;;;;28.23;59.75;100426.75;178377;1262;46095;-80
2023/08/24 09:57:27;;;;;;;3.90;1.70;;;;;;;28.19;58.04;100419.45;178664;1262;46095;-80
2023/08/24 10:01:31;;;;;;;2.70;1.90;;;;;;;28.28;58.31;100418.56;178397;1267;46090;-80
2023/08/24 10:05:35;;;;;;;3.50;2.90;;;;;;;28.33;57.69;100418.13;178300;1262;45966;-80
2023/08/24 10:10:05;;;;;;;4.30;3.00;;;;;;;28.41;60.46;100413.73;178435;1262;58081;-80
2023/08/24 10:14:28;;;;;;;8.90;3.30;;;;;;;28.48;60.14;100406.91;178384;1262;46653;-80
2023/08/24 10:18:33;;;;;;;5.20;2.50;;;;;;;28.44;62.32;100409.79;178693;1262;44671;-80
2023/08/24 10:22:41;;;;;;;3.50;2.50;;;;;;;28.35;62.92;100407.82;178727;1262;44297;-81
2023/08/24 10:26:44;;;;;;;4.60;2.60;;;;;;;28.35;60.72;100405.30;179171;1262;46222;-80
2023/08/24 10:30:49;;;;;;;7.60;2.80;;;;;;;28.38;61.78;100405.63;179070;1262;58415;-81
2023/08/24 10:34:53;;;;;;;3.20;2.40;;;;;;;28.48;63.72;100403.53;178395;1262;46063;-81
2023/08/24 10:38:59;;;;;;;6.70;3.40;;;;;;;28.37;61.81;100399.91;178662;1262;46120;-81
2023/08/24 10:43:05;;;;;;;8.60;2.50;;;;;;;28.25;61.30;100390.61;178441;1262;46030;-81
2023/08/24 10:47:17;;;;;;;3.10;2.40;;;;;;;28.21;63.24;100382.73;178492;1262;46116;-81
2023/08/24 10:51:26;;;;;;;3.50;2.20;;;;;;;28.37;67.40;100369.83;178711;1262;59773;-81
2023/08/24 10:55:36;;;;;;;3.20;2.00;;;;;;;28.58;62.20;100360.06;178873;1262;43762;-79
2023/08/24 10:59:39;;;;;;;5.00;2.30;;;;;;;28.76;64.60;100354.71;179020;1265;46176;-79
2023/08/24 11:03:56;;;;;;;4.30;2.10;;;;;;;28.87;62.62;100348.58;179093;1261;46059;-80
2023/08/24 11:08:05;;;;;;;3.70;2.50;;;;;;;29.06;61.10;100345.99;178852;1262;50835;-80
2023/08/24 11:12:08;;;;;;;2.60;2.30;;;;;;;29.12;59.48;100339.15;178867;1262;59800;-79
2023/08/24 11:16:38;;;;;;;6.00;2.60;;;;;;;29.29;59.21;100332.79;178966;1263;46079;-80
2023/08/24 11:20:46;;;;;;;6.60;3.50;;;;;;;29.52;59.63;100334.52;179065;1262;43726;-80
2023/08/24 11:24:50;;;;;;;3.90;2.30;;;;;;;29.47;57.63;100337.67;179275;1263;45937;-80
2023/08/24 11:28:57;;;;;;;17.80;5.60;;;;;;;29.42;58.88;100332.29;179287;1262;46028;-80
2023/08/24 11:33:03;;;;;;;3.50;2.50;;;;;;;29.56;59.54;100330.52;179407;1263;60058;-80
2023/08/24 11:37:18;;;;;;;4.50;2.20;;;;;;;29.63;59.69;100326.08;179200;1262;45924;-80
2023/08/24 11:41:23;;;;;;;3.10;2.40;;;;;;;29.59;59.44;100313.02;179250;1263;46241;-80
2023/08/24 11:45:32;;;;;;;6.80;3.90;;;;;;;29.66;60.69;100307.70;178961;1265;43498;-80
2023/08/24 11:49:36;;;;;;;3.20;2.40;;;;;;;29.80;56.30;100297.41;179273;1265;46027;-81
2023/08/24 11:53:42;;;;;;;2.30;2.00;;;;;;;29.85;59.27;100292.97;179291;1266;60720;-81
2023/08/24 11:57:46;;;;;;;6.20;2.50;;;;;;;29.83;57.48;100290.55;178974;1267;44569;-81
2023/08/24 12:01:52;;;;;;;3.30;2.20;;;;;;;29.89;58.25;100288.55;179394;1263;46044;-81
2023/08/24 12:06:01;;;;;;;2.30;2.00;;;;;;;29.92;56.76;100284.57;179132;1263;45051;-80
2023/08/24 12:10:05;;;;;;;4.90;1.80;;;;;;;29.95;55.93;100279.33;178894;1266;44790;-80
2023/08/24 12:14:17;;;;;;;4.80;1.90;;;;;;;29.96;55.45;100276.56;179141;1264;59718;-80
2023/08/24 12:18:21;;;;;;;6.10;2.90;;;;;;;29.99;56.71;100282.48;178886;1263;44607;-80
2023/08/24 12:22:24;;;;;;;5.60;2.40;;;;;;;30.07;58.90;100285.88;178929;1266;44239;-81
2023/08/24 12:26:28;;;;;;;2.30;2.10;;;;;;;30.03;57.13;100293.84;178930;1262;46471;-80
2023/08/24 12:30:33;;;;;;;5.90;2.60;;;;;;;30.07;56.64;100290.21;179025;1262;46095;-81
2023/08/24 12:34:37;;;;;;;3.90;2.70;;;;;;;30.14;56.23;100290.08;179522;1262;57280;-80
2023/08/24 12:38:42;;;;;;;3.20;2.00;;;;;;;30.18;56.47;100274.20;178819;1262;45983;-80
2023/08/24 12:42:46;;;;;;;3.50;2.40;;;;;;;30.19;55.33;100269.27;179023;1264;46129;-80
2023/08/24 12:46:50;;;;;;;4.50;2.70;;;;;;;30.12;55.48;100262.52;178478;1262;45992;-80
2023/08/24 12:50:53;;;;;;;2.80;2.60;;;;;;;30.05;56.76;100250.09;178887;1262;46117;-80
2023/08/24 12:54:57;;;;;;;2.80;2.50;;;;;;;29.92;58.25;100243.67;179465;1262;58267;-79
2023/08/24 12:59:01;;;;;;;9.30;3.20;;;;;;;29.81;58.18;100243.15;179381;1262;46076;-79
2023/08/24 13:03:04;;;;;;;2.60;2.20;;;;;;;29.76;57.79;100242.23;179595;1264;44093;-80
2023/08/24 13:07:09;;;;;;;3.40;2.30;;;;;;;29.73;57.55;100238.84;179414;1262;43667;-80
2023/08/24 13:11:12;;;;;;;2.90;2.70;;;;;;;29.78;56.83;100233.02;179540;1262;45985;-79
2023/08/24 13:15:16;;;;;;;5.80;2.40;;;;;;;29.86;58.13;100225.71;179500;1266;58235;-79
2023/08/24 13:19:20;;;;;;;3.50;2.60;;;;;;;29.78;58.71;100222.67;179331;1262;43809;-79
2023/08/24 13:23:24;;;;;;;2.40;2.20;;;;;;;29.62;59.83;100225.05;179410;1262;45997;-79
2023/08/24 13:27:27;;;;;;;5.60;2.70;;;;;;;29.36;60.58;100221.41;179350;1263;47731;-79
2023/08/24 13:31:31;;;;;;;4.60;3.10;;;;;;;29.10;61.95;100221.04;179560;1263;44068;-79
2023/08/24 13:35:34;;;;;;;4.30;2.50;;;;;;;28.97;63.97;100212.41;179381;1264;58539;-78
2023/08/24 13:39:38;;;;;;;5.10;2.90;;;;;;;28.94;62.47;100204.05;179570;1264;45991;-78
2023/08/24 13:43:42;;;;;;;4.70;3.20;;;;;;;28.93;62.07;100197.73;179307;1263;46348;-77
2023/08/24 13:47:46;;;;;;;5.60;3.00;;;;;;;28.95;61.98;100195.25;179548;1264;43775;-77
2023/08/24 13:51:52;;;;;;;4.50;2.50;;;;;;;28.98;60.44;100184.24;179519;1264;45965;-78
2023/08/24 13:55:59;;;;;;;4.20;1.90;;;;;;;29.03;59.54;100188.69;179569;1267;57970;-78
2023/08/24 14:00:04;;;;;;;3.30;2.20;;;;;;;29.12;61.09;100185.57;179118;1263;45992;-78
2023/08/24 14:04:08;;;;;;;;;;;;;;;29.20;63.41;100171.89;178861;1264;44543;-79
2023/08/24 14:08:11;;;;;;;2.30;2.20;;;;;;;29.27;59.72;100174.83;179184;1266;45723;-78
2023/08/24 14:12:15;;;;;;;3.80;2.90;;;;;;;29.31;60.48;100168.20;179363;1262;46198;-78
2023/08/24 14:16:18;;;;;;;3.50;1.80;;;;;;;29.38;59.34;100158.61;179589;1264;58955;-78
2023/08/24 14:20:22;;;;;;;5.30;1.80;;;;;;;29.46;59.31;100153.67;179176;1264;46057;-78
2023/08/24 14:24:26;;;;;;;3.10;2.50;;;;;;;29.58;60.81;100146.98;179177;1263;45974;-78
2023/08/24 14:28:54;;;;;;;3.10;2.00;;;;;;;29.63;58.83;100136.35;179109;1264;46134;-78
2023/08/24 14:32:57;;;;;;;2.50;2.00;;;;;;;29.68;58.22;100129.75;179197;1267;46010;-78
2023/08/24 14:37:03;;;;;;;5.90;2.10;;;;;;;29.71;58.29;100127.38;179291;1264;60498;-78
2023/08/24 14:41:09;;;;;;;6.30;3.60;;;;;;;29.75;58.21;100137.51;179390;1264;45985;-78
2023/08/24 14:45:12;;;;;;;3.20;2.20;;;;;;;29.81;56.53;100141.85;179226;1263;45987;-78
2023/08/24 14:49:18;;;;;;;2.80;2.00;;;;;;;29.89;57.83;100126.20;179366;1264;45959;-78
2023/08/24 14:53:24;;;;;;;3.30;1.90;;;;;;;29.96;56.56;100104.31;179544;1263;45973;-79
2023/08/24 14:57:28;;;;;;;7.10;2.90;;;;;;;29.95;56.27;100094.94;179202;1266;58400;-78
2023/08/24 15:01:31;;;;;;;3.70;2.20;;;;;;;29.98;56.57;100090.08;179336;1264;45950;-78
2023/08/24 15:05:57;;;;;;;3.20;2.00;;;;;;;29.97;56.67;100081.02;179215;1262;44196;-78
2023/08/24 15:10:02;;;;;;;4.50;2.60;;;;;;;29.82;57.51;100073.17;179266;1262;45884;-78
2023/08/24 15:14:06;;;;;;;6.40;2.30;;;;;;;29.82;56.60;100077.77;179424;1266;45993;-79
2023/08/24 15:18:11;;;;;;;2.20;1.90;;;;;;;29.85;56.25;100074.66;179410;1263;57496;-79
2023/08/24 15:22:14;;;;;;;3.10;2.10;;;;;;;29.72;56.65;100078.34;179400;1264;46017;-79
2023/08/24 15:26:18;;;;;;;5.30;2.80;;;;;;;29.67;57.53;100078.17;179386;1264;44787;-79
2023/08/24 15:30:23;;;;;;;3.50;1.60;;;;;;;29.65;58.12;100078.25;179326;1262;46031;-79
2023/08/24 15:34:27;;;;;;;1.90;1.50;;;;;;;29.64;57.38;100082.37;179160;1263;46212;-79
2023/08/24 15:38:32;;;;;;;5.00;2.10;;;;;;;29.64;57.13;100082.95;179011;1263;59251;-79
2023/08/24 15:42:36;;;;;;;8.60;2.40;;;;;;;29.53;57.41;100081.77;179110;1264;44704;-79
2023/08/24 15:46:40;;;;;;;5.20;2.10;;;;;;;29.45;57.93;100080.19;178941;1264;46168;-79
2023/08/24 15:50:43;;;;;;;3.40;2.60;;;;;;;29.40;58.02;100080.33;179055;1262;46012;-79
2023/08/24 15:54:47;;;;;;;6.00;2.40;;;;;;;29.34;57.86;100083.71;179312;1261;43770;-79
2023/08/24 15:58:51;;;;;;;3.30;2.90;;;;;;;29.30;57.67;100080.59;179132;1262;57961;-79
2023/08/24 16:02:54;;;;;;;4.10;1.80;;;;;;;29.26;57.51;100089.36;178963;1261;44702;-79
2023/08/24 16:07:02;;;;;;;2.90;2.60;;;;;;;29.20;58.10;100085.91;179117;1263;44043;-79
2023/08/24 16:11:21;;;;;;;2.10;1.80;;;;;;;29.13;58.27;100087.42;179003;1262;46004;-77
2023/08/24 16:15:27;;;;;;;5.60;2.90;;;;;;;29.08;59.06;100085.91;178894;1263;45919;-77
2023/08/24 16:19:31;;;;;;;6.00;2.00;;;;;;;29.06;60.20;100086.59;179073;1264;59180;-77
2023/08/24 16:23:53;;;;;;;4.80;2.90;;;;;;;28.96;60.75;100081.71;178877;1262;44614;-79
2023/08/24 16:28:19;;;;;;;2.80;2.10;;;;;;;28.86;59.94;100084.53;179524;1262;44048;-79
2023/08/24 16:32:39;;;;;;;2.70;1.70;;;;;;;28.83;60.54;100088.00;179542;1262;45944;-79
2023/08/24 16:37:09;;;;;;;5.00;2.10;;;;;;;28.84;62.78;100087.68;179234;1262;44616;-79
2023/08/24 16:41:23;;;;;;;4.30;2.20;;;;;;;28.77;62.88;100084.44;180206;1263;57978;-77
2023/08/24 16:45:27;;;;;;;3.40;2.40;;;;;;;28.64;62.34;100081.58;180215;1264;45114;-77
2023/08/24 16:49:31;;;;;;;6.20;2.70;;;;;;;28.52;64.30;100085.73;179948;1263;44804;-77
2023/08/24 16:53:37;;;;;;;3.60;2.80;;;;;;;28.37;64.76;100086.15;179943;1263;44071;-77
2023/08/24 16:57:44;;;;;;;3.10;2.80;;;;;;;28.18;65.30;100079.99;179839;1264;45981;-76
2023/08/24 17:01:48;;;;;;;2.50;2.30;;;;;;;27.99;65.88;100079.89;179990;1263;59473;-78
2023/08/24 17:05:52;;;;;;;4.20;2.30;;;;;;;27.86;66.96;100074.40;179835;1264;43790;-77
2023/08/24 17:09:59;;;;;;;7.00;2.80;;;;;;;27.66;67.77;100067.33;179755;1263;43944;-77
2023/08/24 17:14:03;;;;;;;6.00;3.20;;;;;;;27.48;69.45;100057.48;179681;1265;46041;-77
2023/08/24 17:18:07;;;;;;;7.80;3.60;;;;;;;27.31;70.54;100057.74;179521;1263;45127;-77
2023/08/24 17:22:12;;;;;;;3.00;2.60;;;;;;;27.17;71.49;100057.92;179720;1267;60014;-77
2023/08/24 17:26:15;;;;;;;3.80;3.50;;;;;;;27.04;72.21;100057.31;179580;1265;44947;-77
2023/08/24 17:30:19;;;;;;;5.80;3.00;;;;;;;26.88;73.00;100054.91;179546;1265;44743;-77
2023/08/24 17:34:23;;;;;;;5.10;2.80;;;;;;;26.74;73.89;100049.08;179791;1269;44023;-77
2023/08/24 17:38:28;;;;;;;3.40;2.70;;;;;;;26.60;75.13;100039.83;179595;1264;43614;-76
2023/08/24 17:42:31;;;;;;;4.40;2.80;;;;;;;26.50;76.03;100042.98;179523;1268;61086;-77
2023/08/24 17:46:35;;;;;;;5.20;3.70;;;;;;;26.41;76.83;100046.26;179889;1265;44495;-76
2023/08/24 17:50:39;;;;;;;6.70;3.60;;;;;;;26.31;77.50;100051.27;179696;1268;44675;-76
2023/08/24 17:54:42;;;;;;;12.80;4.20;;;;;;;26.23;78.30;100055.62;179799;1267;44504;-76
2023/08/24 17:58:46;;;;;;;12.20;4.60;;;;;;;26.11;79.76;100051.09;179641;1265;46020;-77
2023/08/24 18:02:51;;;;;;;3.80;2.80;;;;;;;25.96;80.58;100046.80;179547;1264;236800;-76
2023/08/24 18:06:55;;;;;;;8.60;3.90;;;;;;;25.82;81.34;100049.95;179442;1266;46152;-77
2023/08/24 18:11:03;;;;;;;5.80;4.10;;;;;;;25.69;82.11;100052.61;179817;1265;44300;-76
2023/08/24 18:15:07;;;;;;;3.70;3.30;;;;;;;25.56;82.77;100058.04;180024;1267;44573;-76
2023/08/24 18:19:14;;;;;;;5.40;4.60;;;;;;;25.42;83.63;100059.05;179703;1267;46144;-76
2023/08/24 18:23:18;;;;;;;6.40;3.40;;;;;;;25.33;83.61;100063.55;179568;1267;60044;-78
2023/08/24 18:27:21;;;;;;;5.30;3.70;;;;;;;25.24;84.19;100066.60;179816;1265;50290;-76
2023/08/24 18:31:25;;;;;;;5.70;4.00;;;;;;;25.11;85.28;100071.20;179573;1267;43859;-77
2023/08/24 18:35:29;;;;;;;4.00;3.30;;;;;;;24.99;85.70;100070.24;179658;1267;43957;-76
2023/08/24 18:39:33;;;;;;;4.20;3.80;;;;;;;24.90;85.95;100071.44;180484;1265;43890;-77
2023/08/24 18:43:36;;;;;;;4.30;3.40;;;;;;;24.81;87.32;100068.85;180438;1263;58656;-77